Terminal Aerodrome Forecast
Issued by NWS

Home | Current Version | Previous Version | Text Only | Print | Product List | Glossary On
Versions: 1 2 3 4 5 6 7 8 9 10 11 12 13 14 15 16 17 18 19 20 21 22 23 24 25
000
FTUS43 KMKX 190520
TAFUES
TAF
KUES 190520Z 1906/2006 24011KT P6SM FEW250 WS020/26040KT
     FM191000 23009KT P6SM FEW250
     FM191500 23011G22KT P6SM SCT250
     FM192100 21013G25KT P6SM FEW250 WS020/24040KT
     FM200400 23015G26KT P6SM SCT250 WS015/26035KT=

USA.gov is the U.S. government's official web portal to all federal, state and local government web resources and services.